sensor_id;sensor_type;location;lat;lon;timestamp;temperature;humidity
6307;DHT22;3186;54.062;9.962;2023-01-15T00:01:18;7.30;99.90
6307;DHT22;3186;54.062;9.962;2023-01-15T00:03:44;7.40;99.90
6307;DHT22;3186;54.062;9.962;2023-01-15T00:06:10;7.30;99.90
6307;DHT22;3186;54.062;9.962;2023-01-15T00:08:36;7.30;99.90
6307;DHT22;3186;54.062;9.962;2023-01-15T00:11:03;7.20;99.90
6307;DHT22;3186;54.062;9.962;2023-01-15T00:13:29;7.20;99.90
6307;DHT22;3186;54.062;9.962;2023-01-15T00:16:09;7.10;99.90
6307;DHT22;3186;54.062;9.962;2023-01-15T00:18:35;7.10;99.90
6307;DHT22;3186;54.062;9.962;2023-01-15T00:21:02;7.10;99.90
6307;DHT22;3186;54.062;9.962;2023-01-15T00:23:29;7.20;99.90
6307;DHT22;3186;54.062;9.962;2023-01-15T00:26:15;6.90;99.90
6307;DHT22;3186;54.062;9.962;2023-01-15T00:29:00;7.00;99.90
6307;DHT22;3186;54.062;9.962;2023-01-15T00:31:27;7.10;99.90
6307;DHT22;3186;54.062;9.962;2023-01-15T00:33:53;7.10;99.90
6307;DHT22;3186;54.062;9.962;2023-01-15T00:36:19;7.10;99.90
6307;DHT22;3186;54.062;9.962;2023-01-15T00:38:44;7.10;99.90
6307;DHT22;3186;54.062;9.962;2023-01-15T00:41:10;7.10;99.90
6307;DHT22;3186;54.062;9.962;2023-01-15T00:43:36;7.10;99.90
6307;DHT22;3186;54.062;9.962;2023-01-15T00:46:02;7.10;99.90
6307;DHT22;3186;54.062;9.962;2023-01-15T00:48:30;7.00;99.90
6307;DHT22;3186;54.062;9.962;2023-01-15T00:50:56;7.00;99.90
6307;DHT22;3186;54.062;9.962;2023-01-15T00:53:22;7.00;99.90
6307;DHT22;3186;54.062;9.962;2023-01-15T00:55:48;6.90;99.90
6307;DHT22;3186;54.062;9.962;2023-01-15T00:58:14;7.00;99.90
6307;DHT22;3186;54.062;9.962;2023-01-15T01:00:39;7.00;99.90
6307;DHT22;3186;54.062;9.962;2023-01-15T01:03:05;7.00;99.90
6307;DHT22;3186;54.062;9.962;2023-01-15T01:05:31;7.00;99.90
6307;DHT22;3186;54.062;9.962;2023-01-15T01:07:58;6.90;99.90
6307;DHT22;3186;54.062;9.962;2023-01-15T01:10:25;6.90;99.90
6307;DHT22;3186;54.062;9.962;2023-01-15T01:12:52;6.80;99.90
6307;DHT22;3186;54.062;9.962;2023-01-15T01:15:22;6.80;99.90
6307;DHT22;3186;54.062;9.962;2023-01-15T01:17:48;6.80;99.90
6307;DHT22;3186;54.062;9.962;2023-01-15T01:20:15;6.90;99.90
6307;DHT22;3186;54.062;9.962;2023-01-15T01:22:42;6.80;99.90
6307;DHT22;3186;54.062;9.962;2023-01-15T01:25:08;7.20;99.90
6307;DHT22;3186;54.062;9.962;2023-01-15T01:27:35;6.80;99.90
6307;DHT22;3186;54.062;9.962;2023-01-15T01:30:02;6.70;99.90
6307;DHT22;3186;54.062;9.962;2023-01-15T01:32:28;6.70;99.90
6307;DHT22;3186;54.062;9.962;2023-01-15T01:34:55;6.70;99.90
6307;DHT22;3186;54.062;9.962;2023-01-15T01:37:22;6.70;99.90
6307;DHT22;3186;54.062;9.962;2023-01-15T01:39:48;6.70;99.90
6307;DHT22;3186;54.062;9.962;2023-01-15T01:42:16;6.70;99.90
6307;DHT22;3186;54.062;9.962;2023-01-15T01:47:17;6.70;99.90
6307;DHT22;3186;54.062;9.962;2023-01-15T01:49:50;6.70;99.90
6307;DHT22;3186;54.062;9.962;2023-01-15T01:52:24;6.70;99.90
6307;DHT22;3186;54.062;9.962;2023-01-15T01:54:51;6.60;99.90
6307;DHT22;3186;54.062;9.962;2023-01-15T01:57:19;6.60;99.90
6307;DHT22;3186;54.062;9.962;2023-01-15T01:59:46;6.50;99.90
6307;DHT22;3186;54.062;9.962;2023-01-15T02:02:14;6.60;99.90
6307;DHT22;3186;54.062;9.962;2023-01-15T02:04:41;6.70;99.90
6307;DHT22;3186;54.062;9.962;2023-01-15T02:07:07;6.70;99.90
6307;DHT22;3186;54.062;9.962;2023-01-15T02:09:33;6.70;99.90
6307;DHT22;3186;54.062;9.962;2023-01-15T02:12:24;6.60;99.90
6307;DHT22;3186;54.062;9.962;2023-01-15T02:15:08;6.60;99.90
6307;DHT22;3186;54.062;9.962;2023-01-15T02:18:11;6.60;99.90
6307;DHT22;3186;54.062;9.962;2023-01-15T02:24:08;6.60;99.90
6307;DHT22;3186;54.062;9.962;2023-01-15T02:27:33;6.50;99.90
6307;DHT22;3186;54.062;9.962;2023-01-15T02:32:17;6.60;99.90
6307;DHT22;3186;54.062;9.962;2023-01-15T02:34:52;6.60;99.90
6307;DHT22;3186;54.062;9.962;2023-01-15T02:37:28;6.60;99.90
6307;DHT22;3186;54.062;9.962;2023-01-15T02:39:57;6.50;99.90
6307;DHT22;3186;54.062;9.962;2023-01-15T02:42:27;6.60;99.90
6307;DHT22;3186;54.062;9.962;2023-01-15T02:44:56;6.50;99.90
6307;DHT22;3186;54.062;9.962;2023-01-15T02:47:26;6.50;99.90
6307;DHT22;3186;54.062;9.962;2023-01-15T02:49:59;6.50;99.90
6307;DHT22;3186;54.062;9.962;2023-01-15T02:52:43;6.60;99.90
6307;DHT22;3186;54.062;9.962;2023-01-15T02:55:20;6.60;99.90
6307;DHT22;3186;54.062;9.962;2023-01-15T02:57:50;6.50;99.90
6307;DHT22;3186;54.062;9.962;2023-01-15T03:00:19;6.40;99.90
6307;DHT22;3186;54.062;9.962;2023-01-15T03:02:57;6.50;99.90
6307;DHT22;3186;54.062;9.962;2023-01-15T03:05:30;6.50;99.90
6307;DHT22;3186;54.062;9.962;2023-01-15T03:08:02;6.50;99.90
6307;DHT22;3186;54.062;9.962;2023-01-15T03:10:48;6.50;99.90
6307;DHT22;3186;54.062;9.962;2023-01-15T03:16:36;6.40;99.90
6307;DHT22;3186;54.062;9.962;2023-01-15T03:21:52;6.50;99.90
6307;DHT22;3186;54.062;9.962;2023-01-15T03:25:25;6.50;99.90
6307;DHT22;3186;54.062;9.962;2023-01-15T03:27:38;6.50;99.90
6307;DHT22;3186;54.062;9.962;2023-01-15T03:30:06;6.50;99.90
6307;DHT22;3186;54.062;9.962;2023-01-15T03:32:32;6.60;99.90
6307;DHT22;3186;54.062;9.962;2023-01-15T03:34:58;6.40;99.90
6307;DHT22;3186;54.062;9.962;2023-01-15T03:37:27;6.50;99.90
6307;DHT22;3186;54.062;9.962;2023-01-15T03:39:55;6.60;99.90
6307;DHT22;3186;54.062;9.962;2023-01-15T03:42:43;6.90;99.90
6307;DHT22;3186;54.062;9.962;2023-01-15T03:45:19;6.50;99.90
6307;DHT22;3186;54.062;9.962;2023-01-15T03:58:29;6.40;99.90
6307;DHT22;3186;54.062;9.962;2023-01-15T04:00:59;6.40;99.90
6307;DHT22;3186;54.062;9.962;2023-01-15T04:03:27;6.30;99.90
6307;DHT22;3186;54.062;9.962;2023-01-15T04:05:58;6.40;99.90
6307;DHT22;3186;54.062;9.962;2023-01-15T04:08:30;6.30;99.90
6307;DHT22;3186;54.062;9.962;2023-01-15T04:10:59;6.40;99.90
6307;DHT22;3186;54.062;9.962;2023-01-15T04:13:29;6.30;99.90
6307;DHT22;3186;54.062;9.962;2023-01-15T04:15:56;6.30;99.90
6307;DHT22;3186;54.062;9.962;2023-01-15T04:18:23;6.30;99.90
6307;DHT22;3186;54.062;9.962;2023-01-15T04:20:49;6.40;99.90
6307;DHT22;3186;54.062;9.962;2023-01-15T04:23:15;6.30;99.90
6307;DHT22;3186;54.062;9.962;2023-01-15T04:25:41;6.30;99.90
6307;DHT22;3186;54.062;9.962;2023-01-15T04:28:08;6.30;99.90
6307;DHT22;3186;54.062;9.962;2023-01-15T04:30:34;6.30;99.90
6307;DHT22;3186;54.062;9.962;2023-01-15T04:33:01;6.20;99.90
6307;DHT22;3186;54.062;9.962;2023-01-15T04:35:27;6.30;99.90
6307;DHT22;3186;54.062;9.962;2023-01-15T04:37:56;6.30;99.90
6307;DHT22;3186;54.062;9.962;2023-01-15T04:40:22;6.30;99.90
6307;DHT22;3186;54.062;9.962;2023-01-15T04:43:10;6.20;99.90
6307;DHT22;3186;54.062;9.962;2023-01-15T04:46:02;6.20;99.90
6307;DHT22;3186;54.062;9.962;2023-01-15T04:48:28;6.20;99.90
6307;DHT22;3186;54.062;9.962;2023-01-15T04:50:55;6.30;99.90
6307;DHT22;3186;54.062;9.962;2023-01-15T04:53:21;6.20;99.90
6307;DHT22;3186;54.062;9.962;2023-01-15T04:55:47;6.20;99.90
6307;DHT22;3186;54.062;9.962;2023-01-15T04:58:13;6.10;99.90
6307;DHT22;3186;54.062;9.962;2023-01-15T05:00:39;6.10;99.90
6307;DHT22;3186;54.062;9.962;2023-01-15T05:03:05;6.10;99.90
6307;DHT22;3186;54.062;9.962;2023-01-15T05:05:31;6.10;99.90
6307;DHT22;3186;54.062;9.962;2023-01-15T05:08:00;6.10;99.90
6307;DHT22;3186;54.062;9.962;2023-01-15T05:10:26;6.10;99.90
6307;DHT22;3186;54.062;9.962;2023-01-15T05:12:52;6.10;99.90
6307;DHT22;3186;54.062;9.962;2023-01-15T05:15:18;6.10;99.90
6307;DHT22;3186;54.062;9.962;2023-01-15T05:17:44;6.10;99.90
6307;DHT22;3186;54.062;9.962;2023-01-15T05:20:10;6.10;99.90
6307;DHT22;3186;54.062;9.962;2023-01-15T05:22:36;6.10;99.90
6307;DHT22;3186;54.062;9.962;2023-01-15T05:25:01;6.20;99.90
6307;DHT22;3186;54.062;9.962;2023-01-15T05:27:27;6.20;99.90
6307;DHT22;3186;54.062;9.962;2023-01-15T05:29:53;6.10;99.90
6307;DHT22;3186;54.062;9.962;2023-01-15T05:32:19;6.10;99.90
6307;DHT22;3186;54.062;9.962;2023-01-15T05:34:45;6.10;99.90
6307;DHT22;3186;54.062;9.962;2023-01-15T05:37:10;6.20;99.90
6307;DHT22;3186;54.062;9.962;2023-01-15T05:39:36;5.50;99.90
6307;DHT22;3186;54.062;9.962;2023-01-15T05:42:02;6.10;99.90
6307;DHT22;3186;54.062;9.962;2023-01-15T05:44:28;6.20;99.90
6307;DHT22;3186;54.062;9.962;2023-01-15T05:46:58;6.10;99.90
6307;DHT22;3186;54.062;9.962;2023-01-15T05:49:26;6.20;99.90
6307;DHT22;3186;54.062;9.962;2023-01-15T05:51:53;6.10;99.90
6307;DHT22;3186;54.062;9.962;2023-01-15T05:54:22;6.00;99.90
6307;DHT22;3186;54.062;9.962;2023-01-15T05:56:48;6.00;99.90
6307;DHT22;3186;54.062;9.962;2023-01-15T05:59:17;6.10;99.90
6307;DHT22;3186;54.062;9.962;2023-01-15T06:01:43;6.10;99.90
6307;DHT22;3186;54.062;9.962;2023-01-15T06:04:10;6.10;99.90
6307;DHT22;3186;54.062;9.962;2023-01-15T06:06:36;6.10;99.90
6307;DHT22;3186;54.062;9.962;2023-01-15T06:09:03;6.10;99.90
6307;DHT22;3186;54.062;9.962;2023-01-15T06:11:29;6.10;99.90
6307;DHT22;3186;54.062;9.962;2023-01-15T06:13:54;6.10;99.90
6307;DHT22;3186;54.062;9.962;2023-01-15T06:16:21;6.10;99.90
6307;DHT22;3186;54.062;9.962;2023-01-15T06:18:46;6.10;99.90
6307;DHT22;3186;54.062;9.962;2023-01-15T06:21:13;6.10;99.90
6307;DHT22;3186;54.062;9.962;2023-01-15T06:23:39;6.10;99.90
6307;DHT22;3186;54.062;9.962;2023-01-15T06:26:11;6.10;99.90
6307;DHT22;3186;54.062;9.962;2023-01-15T06:28:37;6.20;99.90
6307;DHT22;3186;54.062;9.962;2023-01-15T06:31:07;6.20;99.90
6307;DHT22;3186;54.062;9.962;2023-01-15T06:33:34;6.20;99.90
6307;DHT22;3186;54.062;9.962;2023-01-15T06:36:08;6.20;99.90
6307;DHT22;3186;54.062;9.962;2023-01-15T06:38:35;6.20;99.90
6307;DHT22;3186;54.062;9.962;2023-01-15T06:41:03;6.20;99.90
6307;DHT22;3186;54.062;9.962;2023-01-15T06:43:29;6.20;99.90
6307;DHT22;3186;54.062;9.962;2023-01-15T06:46:15;6.10;99.90
6307;DHT22;3186;54.062;9.962;2023-01-15T06:49:00;6.20;99.90
6307;DHT22;3186;54.062;9.962;2023-01-15T06:51:25;6.10;99.90
6307;DHT22;3186;54.062;9.962;2023-01-15T06:53:51;6.10;99.90
6307;DHT22;3186;54.062;9.962;2023-01-15T06:56:17;6.10;99.90
6307;DHT22;3186;54.062;9.962;2023-01-15T06:58:43;6.10;99.90
6307;DHT22;3186;54.062;9.962;2023-01-15T07:01:12;6.10;99.90
6307;DHT22;3186;54.062;9.962;2023-01-15T07:03:38;6.20;99.90
6307;DHT22;3186;54.062;9.962;2023-01-15T07:06:09;6.10;99.90
6307;DHT22;3186;54.062;9.962;2023-01-15T07:08:35;6.20;99.90
6307;DHT22;3186;54.062;9.962;2023-01-15T07:11:03;6.20;99.90
6307;DHT22;3186;54.062;9.962;2023-01-15T07:13:29;6.20;99.90
6307;DHT22;3186;54.062;9.962;2023-01-15T07:15:57;6.20;99.90
6307;DHT22;3186;54.062;9.962;2023-01-15T07:18:23;6.20;99.90
6307;DHT22;3186;54.062;9.962;2023-01-15T07:20:53;6.10;99.90
6307;DHT22;3186;54.062;9.962;2023-01-15T07:23:20;6.20;99.90
6307;DHT22;3186;54.062;9.962;2023-01-15T07:25:46;6.10;99.90
6307;DHT22;3186;54.062;9.962;2023-01-15T07:28:12;6.10;99.90
6307;DHT22;3186;54.062;9.962;2023-01-15T07:30:38;6.20;99.90
6307;DHT22;3186;54.062;9.962;2023-01-15T07:33:03;6.20;99.90
6307;DHT22;3186;54.062;9.962;2023-01-15T07:35:29;6.10;99.90
6307;DHT22;3186;54.062;9.962;2023-01-15T07:37:55;6.10;99.90
6307;DHT22;3186;54.062;9.962;2023-01-15T07:40:21;6.10;99.90
6307;DHT22;3186;54.062;9.962;2023-01-15T07:42:47;6.20;99.90
6307;DHT22;3186;54.062;9.962;2023-01-15T07:45:31;6.20;99.90
6307;DHT22;3186;54.062;9.962;2023-01-15T07:48:15;6.20;99.90
6307;DHT22;3186;54.062;9.962;2023-01-15T07:51:00;6.20;99.90
6307;DHT22;3186;54.062;9.962;2023-01-15T07:53:26;6.10;99.90
6307;DHT22;3186;54.062;9.962;2023-01-15T07:55:51;6.20;99.90
6307;DHT22;3186;54.062;9.962;2023-01-15T07:58:17;6.10;99.90
6307;DHT22;3186;54.062;9.962;2023-01-15T08:00:43;6.10;99.90
6307;DHT22;3186;54.062;9.962;2023-01-15T08:03:09;6.10;99.90
6307;DHT22;3186;54.062;9.962;2023-01-15T08:05:34;6.10;99.90
6307;DHT22;3186;54.062;9.962;2023-01-15T08:08:00;6.10;99.90
6307;DHT22;3186;54.062;9.962;2023-01-15T08:10:26;6.10;99.90
6307;DHT22;3186;54.062;9.962;2023-01-15T08:12:52;6.10;99.90
6307;DHT22;3186;54.062;9.962;2023-01-15T08:15:40;6.20;99.90
6307;DHT22;3186;54.062;9.962;2023-01-15T08:18:08;6.10;99.90
6307;DHT22;3186;54.062;9.962;2023-01-15T08:20:34;6.10;99.90
6307;DHT22;3186;54.062;9.962;2023-01-15T08:23:01;6.10;99.90
6307;DHT22;3186;54.062;9.962;2023-01-15T08:25:27;6.10;99.90
6307;DHT22;3186;54.062;9.962;2023-01-15T08:27:53;6.10;99.90
6307;DHT22;3186;54.062;9.962;2023-01-15T08:30:23;6.10;99.90
6307;DHT22;3186;54.062;9.962;2023-01-15T08:32:50;6.00;99.90
6307;DHT22;3186;54.062;9.962;2023-01-15T08:35:18;6.10;99.90
6307;DHT22;3186;54.062;9.962;2023-01-15T08:37:44;6.10;99.90
6307;DHT22;3186;54.062;9.962;2023-01-15T08:40:11;6.10;99.90
6307;DHT22;3186;54.062;9.962;2023-01-15T08:42:37;6.00;99.90
6307;DHT22;3186;54.062;9.962;2023-01-15T08:45:03;6.10;99.90
6307;DHT22;3186;54.062;9.962;2023-01-15T08:47:29;6.10;99.90
6307;DHT22;3186;54.062;9.962;2023-01-15T08:49:56;6.00;99.90
6307;DHT22;3186;54.062;9.962;2023-01-15T08:52:22;6.00;99.90
6307;DHT22;3186;54.062;9.962;2023-01-15T08:54:48;6.00;99.90
6307;DHT22;3186;54.062;9.962;2023-01-15T08:57:14;6.10;99.90
6307;DHT22;3186;54.062;9.962;2023-01-15T08:59:40;6.00;99.90
6307;DHT22;3186;54.062;9.962;2023-01-15T09:02:10;6.10;99.90
6307;DHT22;3186;54.062;9.962;2023-01-15T09:04:38;6.10;99.90
6307;DHT22;3186;54.062;9.962;2023-01-15T09:07:03;6.10;99.90
6307;DHT22;3186;54.062;9.962;2023-01-15T09:09:29;6.10;99.90
6307;DHT22;3186;54.062;9.962;2023-01-15T09:11:55;6.10;99.90
6307;DHT22;3186;54.062;9.962;2023-01-15T09:14:21;6.10;99.90
6307;DHT22;3186;54.062;9.962;2023-01-15T09:16:46;6.10;99.90
6307;DHT22;3186;54.062;9.962;2023-01-15T09:19:12;6.10;99.90
6307;DHT22;3186;54.062;9.962;2023-01-15T09:21:38;6.10;99.90
6307;DHT22;3186;54.062;9.962;2023-01-15T09:24:04;6.10;99.90
6307;DHT22;3186;54.062;9.962;2023-01-15T09:26:35;6.10;99.90
6307;DHT22;3186;54.062;9.962;2023-01-15T09:29:03;6.20;99.90
6307;DHT22;3186;54.062;9.962;2023-01-15T09:31:29;6.10;99.90
6307;DHT22;3186;54.062;9.962;2023-01-15T09:33:56;6.10;99.90
6307;DHT22;3186;54.062;9.962;2023-01-15T09:36:31;6.20;99.90
6307;DHT22;3186;54.062;9.962;2023-01-15T09:38:58;6.20;99.90
6307;DHT22;3186;54.062;9.962;2023-01-15T09:41:28;6.20;99.90
6307;DHT22;3186;54.062;9.962;2023-01-15T09:44:27;6.20;99.90
6307;DHT22;3186;54.062;9.962;2023-01-15T09:47:45;6.30;99.90
6307;DHT22;3186;54.062;9.962;2023-01-15T09:50:14;6.30;99.90
6307;DHT22;3186;54.062;9.962;2023-01-15T09:57:45;6.20;99.90
6307;DHT22;3186;54.062;9.962;2023-01-15T10:00:20;6.30;99.90
6307;DHT22;3186;54.062;9.962;2023-01-15T10:10:34;6.30;99.90
6307;DHT22;3186;54.062;9.962;2023-01-15T10:13:25;6.30;99.90
6307;DHT22;3186;54.062;9.962;2023-01-15T10:15:51;6.30;99.90
6307;DHT22;3186;54.062;9.962;2023-01-15T10:18:23;6.30;99.90
6307;DHT22;3186;54.062;9.962;2023-01-15T10:26:37;6.30;99.90
6307;DHT22;3186;54.062;9.962;2023-01-15T10:29:14;6.20;99.90
6307;DHT22;3186;54.062;9.962;2023-01-15T10:45:11;6.30;99.90
6307;DHT22;3186;54.062;9.962;2023-01-15T10:47:39;6.30;99.90
6307;DHT22;3186;54.062;9.962;2023-01-15T10:50:17;6.40;99.90
6307;DHT22;3186;54.062;9.962;2023-01-15T10:52:48;6.40;99.90
6307;DHT22;3186;54.062;9.962;2023-01-15T10:55:44;6.40;99.90
6307;DHT22;3186;54.062;9.962;2023-01-15T11:00:47;6.40;99.90
6307;DHT22;3186;54.062;9.962;2023-01-15T11:03:19;6.40;99.90
6307;DHT22;3186;54.062;9.962;2023-01-15T11:05:46;6.40;99.90
6307;DHT22;3186;54.062;9.962;2023-01-15T11:08:25;6.50;99.90
6307;DHT22;3186;54.062;9.962;2023-01-15T11:10:56;6.60;99.90
6307;DHT22;3186;54.062;9.962;2023-01-15T11:13:26;6.40;99.90
6307;DHT22;3186;54.062;9.962;2023-01-15T11:16:15;6.40;99.90
6307;DHT22;3186;54.062;9.962;2023-01-15T11:18:50;6.50;99.90
6307;DHT22;3186;54.062;9.962;2023-01-15T11:21:39;6.40;99.90
6307;DHT22;3186;54.062;9.962;2023-01-15T11:24:13;6.40;99.90
6307;DHT22;3186;54.062;9.962;2023-01-15T11:26:40;6.40;99.90
6307;DHT22;3186;54.062;9.962;2023-01-15T11:31:52;6.40;99.90
6307;DHT22;3186;54.062;9.962;2023-01-15T11:34:20;6.40;99.90
6307;DHT22;3186;54.062;9.962;2023-01-15T11:36:46;6.40;99.90
6307;DHT22;3186;54.062;9.962;2023-01-15T11:41:47;6.40;99.90
6307;DHT22;3186;54.062;9.962;2023-01-15T11:44:31;6.40;99.90
6307;DHT22;3186;54.062;9.962;2023-01-15T11:47:17;6.40;99.90
6307;DHT22;3186;54.062;9.962;2023-01-15T11:50:15;6.40;99.90
6307;DHT22;3186;54.062;9.962;2023-01-15T11:53:00;6.60;99.90
6307;DHT22;3186;54.062;9.962;2023-01-15T11:55:26;6.70;99.90
6307;DHT22;3186;54.062;9.962;2023-01-15T11:57:54;6.60;99.90
6307;DHT22;3186;54.062;9.962;2023-01-15T12:00:26;6.60;99.90
6307;DHT22;3186;54.062;9.962;2023-01-15T12:02:58;6.60;99.90
6307;DHT22;3186;54.062;9.962;2023-01-15T12:05:34;6.60;99.90
6307;DHT22;3186;54.062;9.962;2023-01-15T12:08:02;7.50;99.90
6307;DHT22;3186;54.062;9.962;2023-01-15T12:10:46;6.60;99.90
6307;DHT22;3186;54.062;9.962;2023-01-15T12:13:43;6.60;99.90
6307;DHT22;3186;54.062;9.962;2023-01-15T12:33:16;6.60;99.90
6307;DHT22;3186;54.062;9.962;2023-01-15T12:35:57;6.60;99.90
6307;DHT22;3186;54.062;9.962;2023-01-15T12:41:20;6.50;99.90
6307;DHT22;3186;54.062;9.962;2023-01-15T12:43:52;6.60;99.90
6307;DHT22;3186;54.062;9.962;2023-01-15T12:46:39;6.50;99.90
6307;DHT22;3186;54.062;9.962;2023-01-15T12:49:23;6.60;99.90
6307;DHT22;3186;54.062;9.962;2023-01-15T12:52:04;6.60;99.90
6307;DHT22;3186;54.062;9.962;2023-01-15T12:54:48;6.50;99.90
6307;DHT22;3186;54.062;9.962;2023-01-15T12:57:30;6.40;99.90
6307;DHT22;3186;54.062;9.962;2023-01-15T13:00:33;6.50;99.90
6307;DHT22;3186;54.062;9.962;2023-01-15T13:06:03;6.50;99.90
6307;DHT22;3186;54.062;9.962;2023-01-15T13:11:04;6.50;99.90
6307;DHT22;3186;54.062;9.962;2023-01-15T13:13:35;6.40;99.90
6307;DHT22;3186;54.062;9.962;2023-01-15T13:16:17;6.40;99.90
6307;DHT22;3186;54.062;9.962;2023-01-15T13:21:36;6.50;99.90
6307;DHT22;3186;54.062;9.962;2023-01-15T13:32:55;6.30;99.90
6307;DHT22;3186;54.062;9.962;2023-01-15T13:37:58;6.40;99.90
6307;DHT22;3186;54.062;9.962;2023-01-15T13:40:28;6.40;99.90
6307;DHT22;3186;54.062;9.962;2023-01-15T13:42:57;6.40;99.90
6307;DHT22;3186;54.062;9.962;2023-01-15T13:45:38;6.40;99.90
6307;DHT22;3186;54.062;9.962;2023-01-15T13:50:41;6.40;99.90
6307;DHT22;3186;54.062;9.962;2023-01-15T13:53:28;6.30;99.90
6307;DHT22;3186;54.062;9.962;2023-01-15T13:55:59;6.30;99.90
6307;DHT22;3186;54.062;9.962;2023-01-15T13:58:36;6.30;99.90
6307;DHT22;3186;54.062;9.962;2023-01-15T14:04:13;6.30;99.90
6307;DHT22;3186;54.062;9.962;2023-01-15T14:06:45;6.30;99.90
6307;DHT22;3186;54.062;9.962;2023-01-15T14:11:40;6.30;99.90
6307;DHT22;3186;54.062;9.962;2023-01-15T14:36:31;5.80;99.90
6307;DHT22;3186;54.062;9.962;2023-01-15T14:39:01;5.80;99.90
6307;DHT22;3186;54.062;9.962;2023-01-15T14:41:29;5.70;99.90
6307;DHT22;3186;54.062;9.962;2023-01-15T14:43:58;5.80;99.90
6307;DHT22;3186;54.062;9.962;2023-01-15T14:46:29;5.70;99.90
6307;DHT22;3186;54.062;9.962;2023-01-15T14:48:55;5.70;99.90
6307;DHT22;3186;54.062;9.962;2023-01-15T14:51:30;5.80;99.90
6307;DHT22;3186;54.062;9.962;2023-01-15T14:54:01;5.80;99.90
6307;DHT22;3186;54.062;9.962;2023-01-15T14:56:47;5.90;99.90
6307;DHT22;3186;54.062;9.962;2023-01-15T14:59:22;5.80;99.90
6307;DHT22;3186;54.062;9.962;2023-01-15T15:01:53;5.80;99.90
6307;DHT22;3186;54.062;9.962;2023-01-15T15:04:32;5.70;99.90
6307;DHT22;3186;54.062;9.962;2023-01-15T15:07:14;5.80;99.90
6307;DHT22;3186;54.062;9.962;2023-01-15T15:15:20;5.80;99.90
6307;DHT22;3186;54.062;9.962;2023-01-15T15:23:17;5.70;99.90
6307;DHT22;3186;54.062;9.962;2023-01-15T15:26:02;5.70;99.90
6307;DHT22;3186;54.062;9.962;2023-01-15T15:28:28;5.70;99.90
6307;DHT22;3186;54.062;9.962;2023-01-15T15:30:57;5.70;99.90
6307;DHT22;3186;54.062;9.962;2023-01-15T15:33:36;5.70;99.90
6307;DHT22;3186;54.062;9.962;2023-01-15T15:36:04;5.70;99.90
6307;DHT22;3186;54.062;9.962;2023-01-15T15:38:30;5.70;99.90
6307;DHT22;3186;54.062;9.962;2023-01-15T15:41:03;5.60;99.90
6307;DHT22;3186;54.062;9.962;2023-01-15T15:43:49;5.70;99.90
6307;DHT22;3186;54.062;9.962;2023-01-15T15:46:36;5.70;99.90
6307;DHT22;3186;54.062;9.962;2023-01-15T15:49:20;5.60;99.90
6307;DHT22;3186;54.062;9.962;2023-01-15T15:51:53;5.60;99.90
6307;DHT22;3186;54.062;9.962;2023-01-15T15:54:26;5.60;99.90
6307;DHT22;3186;54.062;9.962;2023-01-15T15:57:12;5.60;99.90
6307;DHT22;3186;54.062;9.962;2023-01-15T15:59:47;5.60;99.90
6307;DHT22;3186;54.062;9.962;2023-01-15T16:04:51;5.50;99.90
6307;DHT22;3186;54.062;9.962;2023-01-15T16:07:24;5.50;99.90
6307;DHT22;3186;54.062;9.962;2023-01-15T16:09:55;5.50;99.90
6307;DHT22;3186;54.062;9.962;2023-01-15T16:12:22;5.40;99.90
6307;DHT22;3186;54.062;9.962;2023-01-15T16:14:49;5.40;99.90
6307;DHT22;3186;54.062;9.962;2023-01-15T16:17:16;5.40;99.90
6307;DHT22;3186;54.062;9.962;2023-01-15T16:19:43;5.20;99.90
6307;DHT22;3186;54.062;9.962;2023-01-15T16:22:14;5.20;99.90
6307;DHT22;3186;54.062;9.962;2023-01-15T16:24:52;5.20;99.90
6307;DHT22;3186;54.062;9.962;2023-01-15T16:27:18;5.20;99.90
6307;DHT22;3186;54.062;9.962;2023-01-15T16:29:51;5.20;99.90
6307;DHT22;3186;54.062;9.962;2023-01-15T16:32:30;5.30;99.90
6307;DHT22;3186;54.062;9.962;2023-01-15T16:35:06;5.30;99.90
6307;DHT22;3186;54.062;9.962;2023-01-15T16:37:32;5.30;99.90
6307;DHT22;3186;54.062;9.962;2023-01-15T16:40:03;5.40;99.90
6307;DHT22;3186;54.062;9.962;2023-01-15T16:42:35;5.40;99.90
6307;DHT22;3186;54.062;9.962;2023-01-15T16:45:23;5.40;99.90
6307;DHT22;3186;54.062;9.962;2023-01-15T16:50:40;5.40;99.90
6307;DHT22;3186;54.062;9.962;2023-01-15T16:55:56;5.40;99.90
6307;DHT22;3186;54.062;9.962;2023-01-15T16:58:39;5.40;99.90
6307;DHT22;3186;54.062;9.962;2023-01-15T17:01:39;5.40;99.90
6307;DHT22;3186;54.062;9.962;2023-01-15T17:04:28;5.40;99.90
6307;DHT22;3186;54.062;9.962;2023-01-15T17:06:58;5.50;99.90
6307;DHT22;3186;54.062;9.962;2023-01-15T17:09:24;5.50;99.90
6307;DHT22;3186;54.062;9.962;2023-01-15T17:11:51;5.50;99.90
6307;DHT22;3186;54.062;9.962;2023-01-15T17:14:25;5.50;99.90
6307;DHT22;3186;54.062;9.962;2023-01-15T17:19:45;5.40;99.90
6307;DHT22;3186;54.062;9.962;2023-01-15T17:22:30;5.50;99.90
6307;DHT22;3186;54.062;9.962;2023-01-15T17:24:58;5.50;99.90
6307;DHT22;3186;54.062;9.962;2023-01-15T17:27:25;5.50;99.90
6307;DHT22;3186;54.062;9.962;2023-01-15T17:29:51;5.50;99.90
6307;DHT22;3186;54.062;9.962;2023-01-15T17:32:29;5.50;99.90
6307;DHT22;3186;54.062;9.962;2023-01-15T17:34:55;5.50;99.90
6307;DHT22;3186;54.062;9.962;2023-01-15T17:37:21;5.50;99.90
6307;DHT22;3186;54.062;9.962;2023-01-15T17:39:47;5.50;99.90
6307;DHT22;3186;54.062;9.962;2023-01-15T17:42:15;5.50;99.90
6307;DHT22;3186;54.062;9.962;2023-01-15T17:44:41;5.50;99.90
6307;DHT22;3186;54.062;9.962;2023-01-15T17:47:07;5.40;99.90
6307;DHT22;3186;54.062;9.962;2023-01-15T17:49:33;5.50;99.90
6307;DHT22;3186;54.062;9.962;2023-01-15T17:52:00;5.50;99.90
6307;DHT22;3186;54.062;9.962;2023-01-15T17:54:26;5.50;99.90
6307;DHT22;3186;54.062;9.962;2023-01-15T17:57:11;5.50;99.90
6307;DHT22;3186;54.062;9.962;2023-01-15T17:59:55;5.40;99.90
6307;DHT22;3186;54.062;9.962;2023-01-15T18:02:40;5.50;99.90
6307;DHT22;3186;54.062;9.962;2023-01-15T18:05:26;5.50;99.90
6307;DHT22;3186;54.062;9.962;2023-01-15T18:07:58;5.50;99.90
6307;DHT22;3186;54.062;9.962;2023-01-15T18:10:25;5.50;99.90
6307;DHT22;3186;54.062;9.962;2023-01-15T18:12:51;5.50;99.90
6307;DHT22;3186;54.062;9.962;2023-01-15T18:15:17;5.50;99.90
6307;DHT22;3186;54.062;9.962;2023-01-15T18:17:44;5.50;99.90
6307;DHT22;3186;54.062;9.962;2023-01-15T18:20:10;5.40;99.90
6307;DHT22;3186;54.062;9.962;2023-01-15T18:22:36;5.40;99.90
6307;DHT22;3186;54.062;9.962;2023-01-15T18:25:03;5.40;99.90
6307;DHT22;3186;54.062;9.962;2023-01-15T18:27:29;5.40;99.90
6307;DHT22;3186;54.062;9.962;2023-01-15T18:29:56;5.40;99.90
6307;DHT22;3186;54.062;9.962;2023-01-15T18:32:22;5.30;99.90
6307;DHT22;3186;54.062;9.962;2023-01-15T18:34:48;5.30;99.90
6307;DHT22;3186;54.062;9.962;2023-01-15T18:37:13;5.30;99.90
6307;DHT22;3186;54.062;9.962;2023-01-15T18:39:40;5.40;99.90
6307;DHT22;3186;54.062;9.962;2023-01-15T18:42:06;5.30;99.90
6307;DHT22;3186;54.062;9.962;2023-01-15T18:44:31;5.40;99.90
6307;DHT22;3186;54.062;9.962;2023-01-15T18:47:16;5.30;99.90
6307;DHT22;3186;54.062;9.962;2023-01-15T18:49:43;5.40;99.90
6307;DHT22;3186;54.062;9.962;2023-01-15T18:52:12;5.20;99.90
6307;DHT22;3186;54.062;9.962;2023-01-15T18:54:57;5.10;99.90
6307;DHT22;3186;54.062;9.962;2023-01-15T18:57:23;5.30;99.90
6307;DHT22;3186;54.062;9.962;2023-01-15T18:59:49;5.30;99.90
6307;DHT22;3186;54.062;9.962;2023-01-15T19:02:16;5.30;99.90
6307;DHT22;3186;54.062;9.962;2023-01-15T19:04:43;5.20;99.90
6307;DHT22;3186;54.062;9.962;2023-01-15T19:07:09;5.20;99.90
6307;DHT22;3186;54.062;9.962;2023-01-15T19:09:36;5.10;99.90
6307;DHT22;3186;54.062;9.962;2023-01-15T19:12:03;5.20;99.90
6307;DHT22;3186;54.062;9.962;2023-01-15T19:14:29;5.10;99.90
6307;DHT22;3186;54.062;9.962;2023-01-15T19:17:15;5.20;99.90
6307;DHT22;3186;54.062;9.962;2023-01-15T19:19:59;5.10;99.90